| Date | Time | Temp. (oF) | Dew Point (oF) | Rel. Hum. (%) | Press. (in.) | Wind Dir. | Wind Speed (mph) | Hourly Rainfall (in.) |
|
|---|---|---|---|---|---|---|---|---|---|
| 1 | 04/04 | 00:00 | 53 | 40 | 62 | 29.45 | WNW | 8 | 0.00 |
| 2 | 04/03 | 23:00 | 54 | 40 | 61 | 29.43 | SW | 12 | 0.00 |
| 3 | 04/03 | 22:00 | 55 | 41 | 60 | 29.41 | WNW | 6 | 0.00 |
| 4 | 04/03 | 21:00 | 57 | 45 | 66 | 29.36 | W | 6 | 0.00 |
| 5 | 04/03 | 20:00 | 60 | 48 | 66 | 29.29 | WNW | 8 | 0.00 |
| 6 | 04/03 | 19:00 | 62 | 53 | 74 | 29.23 | WSW | 13 | 0.00 |
| 7 | 04/03 | 18:00 | 61 | 53 | 77 | 29.19 | SW | 16 | 0.04 |
| 8 | 04/03 | 17:00 | 66 | 56 | 71 | 29.15 | SW | 12 | 0.00 |
| 9 | 04/03 | 16:00 | 68 | 57 | 68 | 29.12 | WSW | 10 | 0.00 |
| 10 | 04/03 | 15:00 | 68 | 57 | 69 | 29.12 | SW | 10 | 0.00 |
| 11 | 04/03 | 14:00 | 65 | 61 | 88 | 29.12 | SSW | 9 | 0.00 |
| 12 | 04/03 | 13:00 | 62 | 59 | 92 | 29.14 | SE | 5 | 0.01 |
| 13 | 04/03 | 12:00 | 58 | 58 | 100 | 29.19 | SW | 8 | 0.54 |
| 14 | 04/03 | 11:00 | 57 | 57 | 100 | 29.20 | SE | 10 | 0.20 |
| 15 | 04/03 | 10:00 | 57 | 57 | 100 | 29.26 | E | 8 | 0.00 |
| 16 | 04/03 | 09:00 | 56 | 55 | 100 | 29.36 | SE | 4 | 0.02 |
| 17 | 04/03 | 08:00 | 56 | 55 | 100 | 29.39 | SE | 13 | 0.04 |
| 18 | 04/03 | 07:00 | 55 | 54 | 100 | 29.44 | ESE | 13 | 0.03 |
| 19 | 04/03 | 06:00 | 54 | 54 | 100 | 29.50 | SSE | 6 | 0.13 |
| 20 | 04/03 | 05:00 | 55 | 54 | 100 | 29.53 | ESE | 14 | 0.15 |
| 21 | 04/03 | 04:00 | 55 | 54 | 100 | 29.58 | SE | 4 | 0.04 |
| 22 | 04/03 | 03:00 | 55 | 54 | 99 | 29.63 | ESE | 13 | 0.01 |
| 23 | 04/03 | 02:00 | 55 | 54 | 98 | 29.69 | SE | 12 | 0.01 |
| 24 | 04/03 | 01:00 | 56 | 55 | 97 | 29.74 | SE | 7 | 0.00 |